• Join FlightAware (Why Join?)
  • Login
  • US Flag 
08:48AM EDT


 

Airport Tracker/Info


-or-


 

Live Flight TrackerFlight Track Log ✈ DAL268 ✈ 25-Sep-2013 ✈ KJFK - LLBG / TLV

Flight Track Log - Related Links

Times and Time Zones

All times are in EDT time to prevent confusion due to time zone crossing. See the DAL268 flight status page for this flight to view local times or setup timezone preferences in your user account.

Time Position Orientation Groundspeed Altitude Reporting Facility
EDT Latitude Longitude Course Direction KTS MPH feet Rate Location/Type
09:57PM 40.6310 -73.7780 270° West 82 94  Level FlightAware
09:57PM 40.6360 -73.7900 299° West 150 173 780 Level FlightAware
09:58PM 40.6470 -73.8120 303° West 181 208 600 1,740 Climbing FlightAware
09:58PM 40.6490 -73.8200 288° West 181 208 900 1,860 Climbing FlightAware
09:58PM 40.6510 -73.8290 286° West 186 214 1,100 1,500 Climbing FlightAware
09:58PM 40.6510 -73.8340 270° West 188 216 1,200 1,140 Climbing FlightAware
09:58PM 40.6430 -73.8590 247° West 214 246 1,600 900 Climbing FlightAware
09:59PM 40.6360 -73.8670 221° Southwest 229 264 1,700 1,200 Climbing FlightAware
09:59PM 40.6180 -73.8860 219° Southwest 246 283 2,200 1,320 Climbing FlightAware
09:59PM 40.6120 -73.8900 207° Southwest 252 290 2,300 900 Climbing FlightAware
09:59PM 40.5960 -73.8950 193° South 267 307 2,500 1,080 Climbing FlightAware
09:59PM 40.5910 -73.8950 180° South 271 312 2,600 1,500 Climbing FlightAware
10:00PM 40.5620 -73.8850 165° South 284 327 3,200 1,260 Climbing FlightAware
10:00PM 40.5550 -73.8800 152° Southeast 287 330 3,300 1,860 Climbing FlightAware
10:00PM 40.5380 -73.8510 128° Southeast 290 334 4,100 2,220 Climbing FlightAware
10:00PM 40.5350 -73.8370 106° East 287 330 4,400 2,280 Climbing FlightAware
10:01PM 40.5460 -73.7920 72° East 285 328 5,500 2,580 Climbing FlightAware
10:01PM 40.5570 -73.7760 48° Northeast 286 329 6,100 2,520 Climbing FlightAware
10:01PM 40.5780 -73.7460 47° Northeast 293 337 7,000 2,040 Climbing FlightAware
10:02PM 40.5990 -73.7160 47° Northeast 301 346 7,700 2,100 Climbing FlightAware
10:02PM 40.6120 -73.6970 48° Northeast 304 350 8,300 2,340 Climbing FlightAware
10:02PM 40.6360 -73.6600 49° Northeast 310 357 9,300 2,220 Climbing FlightAware
10:03PM 40.6650 -73.6220 45° Northeast 314 361 10,300 1,740 Climbing FlightAware
10:03PM 40.6910 -73.6020 30° Northeast 327 376 10,700 1,380 Climbing FlightAware
10:04PM 40.7390 -73.5700 27° Northeast 352 405 11,500 1,080 Climbing FlightAware
10:04PM 40.7910 -73.5360 26° Northeast 381 438 12,000 900 Climbing FlightAware
10:05PM 40.7911 -73.5362 299° West 399 459 12,300 1,500 Climbing FlightAware ADS-B (KSNC)
10:05PM 40.8734 -73.4807 27° Northeast 411 473 13,200 1,980 Climbing FlightAware ADS-B (KSNC)
10:06PM 40.9491 -73.4299 27° Northeast 418 481 14,800 2,160 Climbing FlightAware ADS-B (KSNC)
10:07PM 41.0168 -73.3843 27° Northeast 424 488 16,200 1,920 Climbing FlightAware ADS-B (KSNC)
10:07PM 41.0875 -73.3368 27° Northeast 432 497 17,400 1,800 Climbing FlightAware ADS-B (KSNC)
10:08PM 41.1434 -73.2993 27° Northeast 435 501 18,400 1,740 Climbing FlightAware ADS-B (KSNC)
10:08PM 41.1955 -73.2640 27° Northeast 441 507 19,200 1,560 Climbing FlightAware ADS-B (KSNC)
10:09PM 41.2669 -73.2156 27° Northeast 447 514 20,200 1,560 Climbing FlightAware ADS-B (KSNC)
10:09PM 41.3234 -73.1777 27° Northeast 453 521 21,000 1,440 Climbing FlightAware ADS-B (KSNC)
10:10PM 41.3950 -73.1050 37° Northeast 466 536 22,000 1,320 Climbing FlightAware ADS-B (KSNC)
10:11PM 41.4306 -73.0314 57° Northeast 473 544 22,700 1,260 Climbing FlightAware ADS-B (KSNC)
10:11PM 41.4641 -72.9555 59° Northeast 479 551 23,300 1,140 Climbing FlightAware ADS-B (KSNC)
10:12PM 41.4988 -72.8756 60° Northeast 486 559 23,900 1,140 Climbing FlightAware ADS-B (KSNC)
10:12PM 41.5329 -72.7973 60° Northeast 492 566 24,500 1,140 Climbing FlightAware ADS-B (KSNC)
10:13PM 41.5834 -72.6893 58° Northeast 494 568 25,300 1,140 Climbing FlightAware ADS-B (KSNC)
10:13PM 41.6300 -72.6218 47° Northeast 494 568 25,900 1,080 Climbing FlightAware ADS-B (KSNC)
10:14PM 41.6808 -72.5602 42° Northeast 499 574 26,400 900 Climbing FlightAware ADS-B (KSNC)
10:14PM 41.7315 -72.4995 42° Northeast 505 581 26,800 960 Climbing FlightAware ADS-B (KSNC)
10:15PM 41.7838 -72.4364 42° Northeast 507 583 27,400 960 Climbing FlightAware ADS-B (KSNC)
10:15PM 41.8376 -72.3708 42° Northeast 511 588 27,800 960 Climbing FlightAware ADS-B (KSNC)
10:16PM 41.8933 -72.3024 42° Northeast 513 590 28,400 1,020 Climbing FlightAware ADS-B (KSNC)
10:16PM 41.9467 -72.2380 42° Northeast 514 592 28,900 1,140 Climbing FlightAware ADS-B (KSNC)
10:17PM 42.0002 -72.1738 42° Northeast 510 587 29,600 1,260 Climbing FlightAware ADS-B (KSNC)
10:17PM 42.0545 -72.1053 43° Northeast 510 587 30,200 960 Climbing FlightAware ADS-B (KSNC)
10:18PM 42.1070 -72.0411 42° Northeast 512 589 30,600 720 Climbing FlightAware ADS-B (KSNC)
10:18PM 42.1636 -71.9721 42° Northeast 513 590 31,000 360 Climbing FlightAware ADS-B (KSNC)
10:19PM 42.2160 -71.9070 43° Northeast 509 586 31,000  Level FlightAware
10:19PM 42.2328 -71.8859 43° Northeast 508 585 31,000  Level FlightAware ADS-B (KSNC)
10:20PM 42.3132 -71.7877 42° Northeast 505 581 31,000  Level FlightAware ADS-B (KSNC)
10:21PM 42.3862 -71.6957 43° Northeast 507 583 31,000  Level FlightAware ADS-B (KSNC)
10:21PM 42.4560 -71.6100 42° Northeast 506 582 31,000  Level FlightAware
10:21PM 42.4701 -71.5902 46° Northeast 506 582 31,000  Level FlightAware ADS-B (KBOS)
10:22PM 42.5202 -71.5280 43° Northeast 505 581 31,000  Level FlightAware ADS-B (KBOS)
10:22PM 42.5755 -71.4592 42° Northeast 504 580 31,000  Level FlightAware ADS-B (KBOS)
10:23PM 42.6275 -71.3926 43° Northeast 503 579 31,000  Level FlightAware ADS-B (KBOS)
10:24PM 42.7026 -71.2981 43° Northeast 502 578 31,000  Level FlightAware ADS-B (KBOS)
10:24PM 42.7536 -71.2336 43° Northeast 501 577 31,000  Level FlightAware ADS-B (KBOS)
10:25PM 42.8063 -71.1671 43° Northeast 499 574 31,000  Level FlightAware ADS-B (KBOS)
10:25PM 42.8564 -71.1029 43° Northeast 496 571 31,000  Level FlightAware ADS-B (KBOS)
10:26PM 42.9296 -71.0092 43° Northeast 494 568 31,000  Level FlightAware ADS-B (KBOS)
10:26PM 42.9812 -70.9431 43° Northeast 493 567 31,000  Level FlightAware ADS-B (KBOS)
10:27PM 43.0563 -70.8473 43° Northeast 492 566 31,000  Level FlightAware ADS-B (KBOS)
10:28PM 43.1068 -70.7816 44° Northeast 491 565 31,000  Level FlightAware ADS-B (KBOS)
10:28PM 43.1690 -70.7030 43° Northeast 489 563 31,000  Level FlightAware
10:28PM 43.1712 -70.6987 55° Northeast 490 564 31,000  Level FlightAware ADS-B (KBOS)
10:29PM 43.2434 -70.6069 43° Northeast 490 564 31,000  Level FlightAware ADS-B (KBOS)
10:30PM 43.3360 -70.4850 44° Northeast 488 562 31,000  Level FlightAware
10:31PM 43.3960 -70.4070 43° Northeast 486 559 31,000  Level FlightAware
10:31PM 43.4460 -70.3430 43° Northeast 485 558 31,000  Level FlightAware
10:32PM 43.5050 -70.2640 44° Northeast 484 557 31,000  Level FlightAware
10:33PM 43.5740 -70.1720 44° Northeast 477 549 31,000  Level FlightAware
10:33PM 43.6250 -70.1060 43° Northeast 476 548 31,000  Level FlightAware
10:34PM 43.6800 -70.0340 43° Northeast 475 547 31,000  Level FlightAware
10:34PM 43.7450 -69.9470 44° Northeast 475 547 31,000  Level FlightAware
10:35PM 43.8010 -69.8720 44° Northeast 475 547 31,000  Level FlightAware
10:35PM 43.8490 -69.8080 44° Northeast 476 548 31,000  Level FlightAware
10:36PM 43.9100 -69.7260 44° Northeast 476 548 31,000  Level FlightAware
10:37PM 43.9740 -69.6410 44° Northeast 475 547 31,000  Level FlightAware
10:37PM 44.0460 -69.5450 44° Northeast 475 547 31,000  Level FlightAware
10:38PM 44.1000 -69.4730 44° Northeast 471 542 31,000  Level FlightAware
10:39PM 44.1560 -69.3970 44° Northeast 469 540 31,000  Level FlightAware
10:39PM 44.2090 -69.3230 45° Northeast 466 536 31,000  Level FlightAware
10:40PM 44.2610 -69.2520 44° Northeast 465 535 31,000  Level FlightAware
10:40PM 44.3110 -69.1850 44° Northeast 463 533 31,000  Level FlightAware
10:41PM 44.3720 -69.1010 45° Northeast 463 533 31,000  Level FlightAware
10:41PM 44.4210 -69.0340 44° Northeast 462 532 31,000  Level FlightAware
10:42PM 44.4780 -68.9560 44° Northeast 464 534 31,000  Level FlightAware
10:43PM 44.5240 -68.8910 45° Northeast 464 534 31,000  Level FlightAware
10:43PM 44.5870 -68.8040 45° Northeast 463 533 31,000  Level FlightAware
10:44PM 44.6360 -68.7360 45° Northeast 465 535 31,000  Level FlightAware
10:44PM 44.6910 -68.6600 44° Northeast 465 535 31,000  Level FlightAware
10:45PM 44.7450 -68.5830 45° Northeast 463 533 31,000  Level FlightAware
10:46PM 44.8010 -68.5070 44° Northeast 461 531 31,000  Level FlightAware
10:46PM 44.8470 -68.4410 45° Northeast 459 528 31,000  Level FlightAware
10:47PM 44.9010 -68.3650 45° Northeast 457 526 31,000  Level FlightAware
10:47PM 44.9190 -68.3400 45° Northeast 455 524 31,000  Level FlightAware
10:47PM 44.9440 -68.3040 46° Northeast 446 513 31,000  Level FlightAware
10:47PM 44.9550 -68.2900 42° Northeast 442 509 31,000  Level FlightAware
10:47PM 44.9670 -68.2720 47° Northeast 440 506 31,000  Level FlightAware
10:48PM 44.9730 -68.2650 40° Northeast 439 505 31,000  Level FlightAware
10:48PM 44.9840 -68.2470 49° Northeast 436 502 31,000  Level FlightAware
10:48PM 45.0350 -68.1770 44° Northeast 434 499 31,000  Level FlightAware
10:48PM 45.0470 -68.1590 47° Northeast 433 498 31,000  Level FlightAware
10:49PM 45.0930 -68.0950 44° Northeast 432 497 31,000  Level FlightAware
10:49PM 45.1040 -68.0790 46° Northeast 431 496 31,000  Level FlightAware
10:50PM 45.1420 -68.0230 46° Northeast 429 494 31,000  Level FlightAware
10:50PM 45.1930 -67.9510 45° Northeast 429 494 31,000  Level FlightAware
10:51PM 45.2390 -67.8850 45° Northeast 423 487 31,000  Level FlightAware
10:51PM 45.2950 -67.8050 45° Northeast 422 486 31,000  Level FlightAware
10:52PM 45.3430 -67.7350 46° Northeast 422 486 31,000  Level FlightAware
10:53PM 45.3960 -67.6530 47° Northeast 425 489 31,000  Level FlightAware
10:53PM 45.4360 -67.5880 49° Northeast 424 488 31,000  Level FlightAware
10:54PM 45.4840 -67.5140 47° Northeast 432 497 31,000  Level FlightAware
10:54PM 45.5380 -67.4290 48° Northeast 435 501 31,000  Level FlightAware
10:55PM 45.5860 -67.3530 48° Northeast 435 501 31,000  Level FlightAware
10:55PM 45.6250 -67.2910 48° Northeast 439 505 31,000  Level FlightAware
10:56PM 45.6740 -67.2130 48° Northeast 439 505 31,000  Level FlightAware
10:57PM 45.7270 -67.1260 49° Northeast 437 503 31,000  Level FlightAware
10:57PM 45.7750 -67.0510 47° Northeast 438 504 31,000  Level FlightAware
10:58PM 45.8150 -66.9860 49° Northeast 440 506 31,000  Level FlightAware
10:58PM 45.8600 -66.9140 48° Northeast 440 506 31,000  Level FlightAware
10:59PM 45.9140 -66.8290 48° Northeast 439 505 31,000  Level FlightAware
11:00PM 45.9580 -66.7570 49° Northeast 436 502 31,000  Level FlightAware
11:00PM 46.0140 -66.6660 48° Northeast 437 503 31,000  Level FlightAware
11:01PM 46.0690 -66.5770 48° Northeast 437 503 31,000  Level FlightAware
11:02PM 46.1190 -66.4930 49° Northeast 439 505 31,000  Level FlightAware
11:02PM 46.1630 -66.4230 48° Northeast 439 505 31,000  Level FlightAware
11:03PM 46.2060 -66.3540 48° Northeast 439 505 31,000  Level FlightAware
11:03PM 46.2470 -66.2880 48° Northeast 439 505 31,000  Level FlightAware
11:04PM 46.2890 -66.2210 48° Northeast 439 505 31,000  Level FlightAware
11:05PM 46.3300 -66.1540 48° Northeast 439 505 31,000  Level FlightAware
11:05PM 46.3720 -66.0870 48° Northeast 439 505 31,000  Level FlightAware
11:06PM 46.4150 -66.0180 48° Northeast 439 505 31,000  Level FlightAware
11:06PM 46.4570 -65.9490 49° Northeast 439 505 31,000  Level FlightAware
11:07PM 46.4990 -65.8820 48° Northeast 439 505 31,000  Level FlightAware
11:08PM 46.5380 -65.8190 48° Northeast 439 505 31,000  Level FlightAware
11:08PM 46.5800 -65.7520 48° Northeast 439 505 31,000  Level FlightAware
11:09PM 46.6210 -65.6840 49° Northeast 439 505 31,000  Level FlightAware
11:09PM 46.6630 -65.6170 48° Northeast 439 505 31,000  Level FlightAware
11:10PM 46.7050 -65.5500 48° Northeast 439 505 31,000  Level FlightAware
11:11PM 46.7610 -65.4580 48° Northeast 439 505 31,000  Level FlightAware
11:11PM 46.8030 -65.3900 48° Northeast 439 505 31,000  Level FlightAware
11:12PM 46.9833 -65.0167 48° Northeast 440 506 31,000  Level Moncton Center
11:13PM 47.0667 -64.8667 51° Northeast 440 506 31,000  Level Moncton Center
11:14PM 47.1333 -64.7333 54° Northeast 450 518 31,000  Level Moncton Center
11:15PM 47.2333 -64.6000 42° Northeast 450 518 31,000  Level Moncton Center
11:16PM 47.3000 -64.4500 57° Northeast 450 518 31,000  Level Moncton Center
11:17PM 47.3833 -64.3000 51° Northeast 450 518 31,000  Level Moncton Center
11:18PM 47.4667 -64.1667 47° Northeast 450 518 31,000  Level Moncton Center
11:19PM 47.5333 -64.0333 53° Northeast 450 518 31,000  Level Moncton Center
11:20PM 47.6167 -63.8833 50° Northeast 450 518 31,000  Level Moncton Center
11:21PM 47.7000 -63.7500 47° Northeast 450 518 31,000  Level Moncton Center
11:22PM 47.7833 -63.6000 50° Northeast 450 518 31,000  Level Moncton Center
11:23PM 47.8667 -63.4500 50° Northeast 450 518 31,000  Level Moncton Center
11:24PM 47.9500 -63.3000 50° Northeast 450 518 31,000  Level Moncton Center
11:25PM 48.0333 -63.1500 50° Northeast 450 518 31,000  Level Moncton Center
11:26PM 48.1167 -63.0000 50° Northeast 450 518 31,000  Level Moncton Center
11:27PM 48.1833 -62.8667 53° Northeast 450 518 31,000  Level Moncton Center
11:28PM 48.2500 -62.7167 56° Northeast 450 518 31,000  Level Moncton Center
11:29PM 48.3333 -62.5667 50° Northeast 450 518 31,000  Level Moncton Center
11:30PM 48.4167 -62.4000 53° Northeast 460 529 31,000  Level Moncton Center
11:31PM 48.4667 -62.3167 48° Northeast 450 518 31,000  Level Gander Center
11:32PM 48.5500 -62.1667 50° Northeast 450 518 31,000  Level Gander Center
11:33PM 48.6333 -62.0167 50° Northeast 460 529 31,000  Level Gander Center
11:34PM 48.7000 -61.8333 61° Northeast 450 518 31,000  Level Gander Center
11:35PM 48.7833 -61.7167 43° Northeast 460 529 31,000  Level Gander Center
11:36PM 48.8667 -61.5333 55° Northeast 460 529 31,000  Level Gander Center
11:37PM 48.9333 -61.3833 56° Northeast 460 529 31,000  Level Gander Center
11:38PM 49.0167 -61.2333 50° Northeast 460 529 31,000 300 Level Gander Center
11:39PM 49.1000 -61.0833 50° Northeast 460 529 31,700 900 Climbing Gander Center
11:40PM 49.1667 -60.9167 58° Northeast 460 529 32,800 840 Climbing Gander Center
11:41PM 49.2500 -60.7667 50° Northeast 460 529 33,400 540 Climbing Gander Center
11:42PM 49.3333 -60.6167 50° Northeast 460 529 33,900 60 Climbing Gander Center
11:48PM 49.7720 -59.7390 50° Northeast 481 554 34,000  Climbing FlightAware
11:48PM 49.8250 -59.6280 53° Northeast 482 555 34,000  Level FlightAware
11:49PM 49.8740 -59.5250 54° Northeast 482 555 34,000  Level FlightAware
11:50PM 49.9150 -59.4400 53° Northeast 482 555 34,000  Level FlightAware
11:50PM 49.9560 -59.3550 53° Northeast 482 555 34,000  Level FlightAware
11:51PM 49.9970 -59.2710 53° Northeast 482 555 34,000  Level FlightAware
11:51PM 50.0380 -59.1860 53° Northeast 482 555 34,000  Level FlightAware
11:52PM 50.0790 -59.1010 53° Northeast 482 555 34,000  Level FlightAware
11:53PM 50.1200 -59.0160 53° Northeast 482 555 34,000  Level FlightAware
11:53PM 50.1580 -58.8850 66° East 34,000  Level FlightAware
11:54PM 50.2200 -58.7380 57° Northeast 484 557 34,000  Level FlightAware
11:54PM 50.2620 -58.6350 57° Northeast 484 557 34,000  Level FlightAware
11:55PM 50.3020 -58.5380 57° Northeast 486 559 34,000  Level FlightAware
11:55PM 50.3480 -58.4260 57° Northeast 486 559 34,000  Level FlightAware
11:56PM 50.3850 -58.3340 58° Northeast 487 560 34,000  Level FlightAware
11:56PM 50.4290 -58.2270 57° Northeast 488 562 34,000  Level FlightAware
11:57PM 50.4740 -58.1150 58° Northeast 491 565 34,000  Level FlightAware
11:58PM 50.5150 -58.0160 57° Northeast 493 567 34,000  Level FlightAware
11:59PM 50.5740 -57.8670 58° Northeast 496 571 34,000  Level FlightAware
11:59PM 50.6120 -57.7750 57° Northeast 496 571 34,000  Level FlightAware
12:00AM 50.6510 -57.6820 56° Northeast 496 571 34,000  Level FlightAware
12:00AM 50.6910 -57.5840 57° Northeast 496 571 34,000  Level FlightAware
12:01AM 50.7310 -57.4850 57° Northeast 496 571 34,000  Level FlightAware
12:02AM 50.7700 -57.3920 56° Northeast 496 571 34,000  Level FlightAware
12:02AM 50.8500 -57.1167 56° Northeast 510 587 34,000  Level Gander Center
12:03AM 50.9167 -56.9333 60° Northeast 500 575 34,000  Level Gander Center
12:04AM 50.9833 -56.7333 62° Northeast 510 587 34,000  Level Gander Center
12:05AM 51.0667 -56.5500 54° Northeast 510 587 34,000  Level Gander Center
12:06AM 51.1333 -56.3500 62° Northeast 510 587 34,000  Level Gander Center
12:07AM 51.2167 -56.1500 56° Northeast 520 598 34,000  Level Gander Center
12:08AM 51.2833 -55.9667 60° Northeast 520 598 34,000  Level Gander Center
12:09AM 51.3667 -55.7667 56° Northeast 530 610 34,000  Level Gander Center
12:10AM 51.4333 -55.5667 62° Northeast 520 598 34,000  Level Gander Center
12:11AM 51.5000 -55.3333 65° Northeast 520 598 34,000  Level Gander Center
12:12AM 51.5833 -55.1500 54° Northeast 520 598 34,000  Level Gander Center
12:13AM 51.6500 -54.9500 62° Northeast 520 598 34,000  Level Gander Center
12:14AM 51.7333 -54.7500 56° Northeast 520 598 34,000  Level Gander Center
12:15AM 51.8000 -54.5500 62° Northeast 520 598 34,000  Level Gander Center
12:16AM 51.8500 -54.3500 68° East 510 587 34,000  Level Gander Center
12:17AM 51.9333 -54.1500 56° Northeast 510 587 34,000  Level Gander Center
12:18AM 52.0000 -53.9333 63° Northeast 510 587 34,000  Level Gander Center
12:19AM 52.0667 -53.7333 61° Northeast 510 587 34,000  Level Gander Center
12:20AM 52.1333 -53.5333 61° Northeast 510 587 34,000  Level Gander Center
12:21AM 52.2167 -53.3333 56° Northeast 510 587 34,000  Level Gander Center
12:22AM 52.2667 -53.1000 71° East 510 587 34,000  Level Gander Center
12:23AM 52.3167 -52.9000 68° East 520 598 34,000  Level Gander Center
12:24AM 52.3667 -52.6667 71° East 510 587 34,000  Level Gander Center
12:25AM 52.4167 -52.4667 68° East 510 587 34,000  Level Gander Center
12:26AM 52.4667 -52.2333 71° East 510 587 34,000  Level Gander Center
12:27AM 52.5167 -52.0000 71° East 510 587 34,000  Level Gander Center
12:28AM 52.5667 -51.8000 68° East 520 598 34,000  Level Gander Center
12:29AM 52.6000 -51.6500 70° East 300 345 34,000  Level Gander Center
12:30AM 52.6500 -51.4167 70° East 500 575 34,000  Level Gander Center
12:31AM 52.7000 -51.2167 68° East 530 610 34,000  Level Gander Center
12:32AM 52.7500 -50.9833 70° East 520 598 34,000  Level Gander Center
12:33AM 52.8167 -50.7500 65° Northeast 530 610 34,000  Level Gander Center
12:34AM 52.8500 -50.5167 77° East 530 610 34,000  Level Gander Center
12:35AM 52.9167 -50.2667 66° East 530 610 34,000  Level Gander Center
12:36AM 52.9500 -50.0333 77° East 540 621 34,000  Level Gander Center
12:38AM 53.0136 -49.6864 59° Northeast  Level Estimated
12:45AM 53.5312 -48.2620 58° Northeast  Level FlightAware Approximate
12:46AM 53.6038 -48.0557 59° Northeast  Level FlightAware Approximate
12:47AM 53.6760 -47.8487 59° Northeast  Level FlightAware Approximate
12:48AM 53.7478 -47.6410 60° Northeast  Level FlightAware Approximate
12:49AM 53.8193 -47.4326 60° Northeast  Level FlightAware Approximate
12:50AM 53.8904 -47.2234 60° Northeast  Level FlightAware Approximate
12:51AM 53.9612 -47.0136 60° Northeast  Level FlightAware Approximate
12:52AM 54.0316 -46.8030 60° Northeast  Level FlightAware Approximate
12:53AM 54.1016 -46.5917 60° Northeast  Level FlightAware Approximate
12:54AM 54.1712 -46.3797 61° Northeast  Level FlightAware Approximate
12:55AM 54.2405 -46.1670 61° Northeast  Level FlightAware Approximate
12:56AM 54.3094 -45.9536 61° Northeast  Level FlightAware Approximate
12:57AM 54.3779 -45.7395 61° Northeast  Level FlightAware Approximate
12:58AM 54.4460 -45.5247 61° Northeast  Level FlightAware Approximate
12:59AM 54.5138 -45.3091 61° Northeast  Level FlightAware Approximate
01:00AM 54.5811 -45.0928 62° Northeast  Level FlightAware Approximate
01:01AM 54.6481 -44.8758 62° Northeast  Level FlightAware Approximate
01:02AM 54.7147 -44.6581 62° Northeast  Level FlightAware Approximate
01:03AM 54.7809 -44.4397 62° Northeast  Level FlightAware Approximate
01:04AM 54.8467 -44.2206 62° Northeast  Level FlightAware Approximate
01:05AM 54.9121 -44.0008 63° Northeast  Level FlightAware Approximate
01:06AM 54.9771 -43.7802 63° Northeast  Level FlightAware Approximate
01:07AM 55.0418 -43.5589 63° Northeast  Level FlightAware Approximate
01:08AM 55.1060 -43.3369 63° Northeast  Level FlightAware Approximate
01:09AM 55.1698 -43.1143 63° Northeast  Level FlightAware Approximate
01:10AM 55.2332 -42.8909 63° Northeast  Level FlightAware Approximate
01:11AM 55.2962 -42.6667 64° Northeast  Level FlightAware Approximate
01:12AM 55.3587 -42.4419 64° Northeast  Level FlightAware Approximate
01:13AM 55.4209 -42.2164 64° Northeast  Level FlightAware Approximate
01:14AM 55.4827 -41.9901 64° Northeast  Level FlightAware Approximate
01:15AM 55.5440 -41.7632 64° Northeast  Level FlightAware Approximate
01:16AM 55.6049 -41.5355 65° Northeast  Level FlightAware Approximate
01:17AM 55.6654 -41.3071 65° Northeast  Level FlightAware Approximate
01:18AM 55.7254 -41.0781 65° Northeast  Level FlightAware Approximate
01:19AM 55.7851 -40.8483 65° Northeast  Level FlightAware Approximate
01:20AM 55.8443 -40.6178 65° Northeast  Level FlightAware Approximate
01:21AM 55.9031 -40.3866 66° East  Level FlightAware Approximate
01:22AM 55.9614 -40.1548 66° East  Level FlightAware Approximate
01:23AM 55.9810 -39.9027 76° East  Level Estimated
01:24AM 56.0168 -39.6563 75° East  Level FlightAware Approximate
01:25AM 56.0521 -39.4094 76° East  Level FlightAware Approximate
01:26AM 56.0869 -39.1620 76° East  Level FlightAware Approximate
01:27AM 56.1212 -38.9142 76° East  Level FlightAware Approximate
01:28AM 56.1550 -38.6660 76° East  Level FlightAware Approximate
01:29AM 56.1884 -38.4174 76° East  Level FlightAware Approximate
01:30AM 56.2212 -38.1683 77° East  Level FlightAware Approximate
01:31AM 56.2535 -37.9187 77° East  Level FlightAware Approximate
01:32AM 56.2853 -37.6688 77° East  Level FlightAware Approximate
01:33AM 56.3166 -37.4184 77° East  Level FlightAware Approximate
01:34AM 56.3475 -37.1677 77° East  Level FlightAware Approximate
01:35AM 56.3778 -36.9165 78° East  Level FlightAware Approximate
01:36AM 56.4076 -36.6650 78° East  Level FlightAware Approximate
01:37AM 56.4368 -36.4130 78° East  Level FlightAware Approximate
01:38AM 56.4656 -36.1607 78° East  Level FlightAware Approximate
01:39AM 56.4939 -35.9080 78° East  Level FlightAware Approximate
01:40AM 56.5216 -35.6549 79° East  Level FlightAware Approximate
01:41AM 56.5489 -35.4014 79° East  Level FlightAware Approximate
01:42AM 56.5756 -35.1476 79° East  Level FlightAware Approximate
01:43AM 56.6018 -34.8934 79° East  Level FlightAware Approximate
01:44AM 56.6274 -34.6389 80° East  Level FlightAware Approximate
01:45AM 56.6526 -34.3841 80° East  Level FlightAware Approximate
01:46AM 56.6772 -34.1289 80° East  Level FlightAware Approximate
01:47AM 56.7014 -33.8733 80° East  Level FlightAware Approximate
01:48AM 56.7250 -33.6175 80° East  Level FlightAware Approximate
01:49AM 56.7480 -33.3613 81° East  Level FlightAware Approximate
01:50AM 56.7706 -33.1048 81° East  Level FlightAware Approximate
01:51AM 56.7926 -32.8480 81° East  Level FlightAware Approximate
01:52AM 56.8141 -32.5909 81° East  Level FlightAware Approximate
01:53AM 56.8350 -32.3336 81° East  Level FlightAware Approximate
01:54AM 56.8555 -32.0759 82° East  Level FlightAware Approximate
01:55AM 56.8754 -31.8180 82° East  Level FlightAware Approximate
01:56AM 56.8947 -31.5597 82° East  Level FlightAware Approximate
01:57AM 56.9136 -31.3013 82° East  Level FlightAware Approximate
01:58AM 56.9319 -31.0425 83° East  Level FlightAware Approximate
01:59AM 56.9496 -30.7836 83° East  Level FlightAware Approximate
02:00AM 56.9668 -30.5243 83° East  Level FlightAware Approximate
02:01AM 56.9835 -30.2649 83° East  Level FlightAware Approximate
02:02AM 56.9814 -30.0036 96° East  Level Estimated
02:03AM 56.9665 -29.7437 96° East  Level FlightAware Approximate
02:04AM 56.9511 -29.4841 96° East  Level FlightAware Approximate
02:05AM 56.9352 -29.2247 96° East  Level FlightAware Approximate
02:06AM 56.9188 -28.9655 97° East  Level FlightAware Approximate
02:07AM 56.9018 -28.7066 97° East  Level FlightAware Approximate
02:08AM 56.8842 -28.4479 97° East  Level FlightAware Approximate
02:09AM 56.8662 -28.1894 97° East  Level FlightAware Approximate
02:09AM 57.0000 -30.0000 96° East 530 610 34,000  Level ETMS Enhanced Traffic Management System
02:10AM 56.8476 -27.9312 97° East  Level FlightAware Approximate
02:11AM 56.8284 -27.6733 98° East  Level FlightAware Approximate
02:12AM 56.8088 -27.4156 98° East  Level FlightAware Approximate
02:13AM 56.7886 -27.1582 98° East  Level FlightAware Approximate
02:14AM 56.7679 -26.9011 98° East  Level FlightAware Approximate
02:15AM 56.5465 -24.4075 101° East 530 610 34,000  Level FlightAware Transoceanic
02:16AM 56.5188 -24.1449 101° East 530 610 34,000  Level FlightAware Transoceanic
02:17AM 56.4904 -23.8826 101° East 530 610 34,000  Level FlightAware Transoceanic
02:18AM 56.4615 -23.6208 101° East 530 610 34,000  Level FlightAware Transoceanic
02:19AM 56.4321 -23.3594 102° East 530 610 34,000  Level FlightAware Transoceanic
02:20AM 56.4021 -23.0983 102° East 530 610 34,000  Level FlightAware Transoceanic
02:21AM 56.3716 -22.8377 102° East 530 610 34,000  Level FlightAware Transoceanic
02:22AM 56.3405 -22.5775 102° East 530 610 34,000  Level FlightAware Transoceanic
02:23AM 56.3089 -22.3177 102° East 530 610 34,000  Level FlightAware Transoceanic
02:24AM 56.2767 -22.0584 103° East 530 610 34,000  Level FlightAware Transoceanic
02:25AM 56.2440 -21.7995 103° East 530 610 34,000  Level FlightAware Transoceanic
02:26AM 56.2107 -21.5410 103° East 530 610 34,000  Level FlightAware Transoceanic
02:27AM 56.1769 -21.2830 103° East 530 610 34,000  Level FlightAware Transoceanic
02:28AM 56.1426 -21.0255 104° East 530 610 34,000  Level FlightAware Transoceanic
02:29AM 56.1078 -20.7684 104° East 530 610 34,000  Level FlightAware Transoceanic
02:30AM 56.0724 -20.5118 104° East 530 610 34,000  Level FlightAware Transoceanic
02:31AM 56.0364 -20.2557 104° East 530 610 34,000  Level FlightAware Transoceanic
02:32AM 56.0013 -20.0088 104° East  Level FlightAware Approximate
02:33AM 55.9657 -19.7623 104° East  Level FlightAware Approximate
02:34AM 55.9583 -19.7757 108° East  Level FlightAware Approximate
02:35AM 55.9130 -19.5348 108° East  Level FlightAware Approximate
02:36AM 55.8671 -19.2944 109° East  Level FlightAware Approximate
02:37AM 55.8209 -19.0545 109° East  Level FlightAware Approximate
02:38AM 55.7741 -18.8153 109° East  Level FlightAware Approximate
02:39AM 55.7269 -18.5766 109° East  Level FlightAware Approximate
02:40AM 55.6792 -18.3385 109° East  Level FlightAware Approximate
02:41AM 55.6311 -18.1010 110° East  Level FlightAware Approximate
02:42AM 55.5825 -17.8640 110° East  Level FlightAware Approximate
02:43AM 55.5334 -17.6277 110° East  Level FlightAware Approximate
02:44AM 55.4839 -17.3919 110° East  Level FlightAware Approximate
02:45AM 55.4339 -17.1567 110° East  Level FlightAware Approximate
02:46AM 55.3835 -16.9222 111° Southeast  Level FlightAware Approximate
02:47AM 55.3327 -16.6882 111° Southeast  Level FlightAware Approximate
02:48AM 55.2814 -16.4548 111° Southeast  Level FlightAware Approximate
02:49AM 55.2296 -16.2221 111° Southeast  Level FlightAware Approximate
02:50AM 55.1774 -15.9899 111° Southeast  Level FlightAware Approximate
02:51AM 55.1248 -15.7584 112° Southeast  Level FlightAware Approximate
02:52AM 55.0717 -15.5275 112° Southeast  Level FlightAware Approximate
02:53AM 55.0182 -15.2971 112° Southeast  Level FlightAware Approximate
02:54AM 54.9643 -15.0674 112° Southeast  Level FlightAware Approximate
02:55AM 54.9101 -14.8382 112° Southeast  Level FlightAware Approximate
02:56AM 54.8570 -14.6085 112° Southeast  Level FlightAware Approximate
02:57AM 54.8038 -14.3807 112° Southeast  Level FlightAware Approximate
02:58AM 54.7501 -14.1535 112° Southeast  Level FlightAware Approximate
02:59AM 54.6961 -13.9270 112° Southeast  Level FlightAware Approximate
03:00AM 54.6416 -13.7010 113° Southeast  Level FlightAware Approximate
03:01AM 54.5867 -13.4756 113° Southeast  Level FlightAware Approximate
03:01AM 54.8850 -13.5900 113° Southeast 485 558 34,000  Level FlightAware
03:01AM 54.8490 -13.4640 116° Southeast 485 558 34,000  Level FlightAware
03:02AM 54.8150 -13.3410 116° Southeast 485 558 34,000  Level FlightAware
03:02AM 54.7790 -13.2140 116° Southeast 485 558 34,000  Level FlightAware
03:03AM 54.7400 -13.0780 116° Southeast 485 558 34,000  Level FlightAware
03:04AM 54.7040 -12.9560 117° Southeast 484 557 34,000  Level FlightAware
03:04AM 54.6690 -12.8340 116° Southeast 485 558 34,000  Level FlightAware
03:05AM 54.6380 -12.7290 117° Southeast 484 557 34,000 240 Level FlightAware
03:05AM 54.5930 -12.5740 117° Southeast 485 558 34,300 660 Climbing FlightAware
03:06AM 54.5510 -12.4310 117° Southeast 485 558 35,000 480 Climbing FlightAware
03:07AM 54.5080 -12.2860 117° Southeast 483 556 35,000  Level FlightAware
03:07AM 54.4780 -12.1870 118° Southeast 483 556 35,000  Level FlightAware
03:08AM 54.4410 -12.0660 118° Southeast 482 555 35,000  Level FlightAware
03:08AM 54.4050 -11.9440 117° Southeast 485 558 35,000  Level FlightAware
03:09AM 54.3630 -11.8070 118° Southeast 484 557 35,000  Level FlightAware
03:10AM 54.3330 -11.7050 117° Southeast 484 557 35,000  Level FlightAware
03:10AM 54.2910 -11.5700 118° Southeast 484 557 35,000  Level FlightAware
03:11AM 54.2540 -11.4510 118° Southeast 486 559 35,000  Level FlightAware
03:12AM 54.2120 -11.3150 118° Southeast 486 559 35,000  Level FlightAware
03:12AM 54.1750 -11.1970 118° Southeast 488 562 35,000  Level FlightAware
03:13AM 54.1380 -11.0780 118° Southeast 489 563 35,000  Level FlightAware
03:13AM 54.0970 -10.9460 118° Southeast 485 558 35,000  Level FlightAware
03:14AM 54.0590 -10.8240 118° Southeast 485 558 35,000  Level FlightAware
03:15AM 54.0210 -10.7050 118° Southeast 486 559 35,000  Level FlightAware
03:15AM 53.9830 -10.5870 119° Southeast 487 560 35,000  Level FlightAware
03:16AM 53.9450 -10.4680 118° Southeast 489 563 35,000  Level FlightAware
03:16AM 53.9070 -10.3500 119° Southeast 489 563 35,000  Level FlightAware
03:17AM 53.8680 -10.2270 118° Southeast 491 565 35,000  Level FlightAware
03:17AM 53.8300 -10.1120 119° Southeast 495 570 35,000  Level FlightAware
03:18AM 53.7910 -9.9940 119° Southeast 495 570 35,000  Level FlightAware
03:19AM 53.7520 -9.8750 119° Southeast 496 571 35,000  Level FlightAware
03:19AM 53.7659 -9.9159 300° West 496 571 35,000  Level FlightAware ADS-B (EGAA / BFS)
03:20AM 53.6740 -9.6390 119° Southeast 496 571 35,000  Level FlightAware
03:20AM 53.6484 -9.5613 119° Southeast 497 572 35,000  Level FlightAware ADS-B (EGAA / BFS)
03:21AM 53.5950 -9.4000 119° Southeast 497 572 35,000  Level FlightAware
03:22AM 53.5550 -9.2860 121° Southeast 497 572 35,000  Level FlightAware
03:22AM 53.5150 -9.1680 120° Southeast 498 573 35,000  Level FlightAware
03:22AM 53.4897 -9.0909 119° Southeast 499 574 35,000  Level FlightAware ADS-B (EGAA / BFS)
03:23AM 53.4520 -8.9795 119° Southeast 496 571 35,000  Level FlightAware UK
03:23AM 53.4271 -8.9068 119° Southeast 498 573 35,000  Level FlightAware ADS-B (EGAA / BFS)
03:24AM 53.3904 -8.8001 120° Southeast 498 573 35,000  Level FlightAware ADS-B (EGAA / BFS)
03:24AM 53.3560 -8.7000 120° Southeast 493 567 35,000  Level FlightAware
03:25AM 53.3230 -8.6068 121° Southeast 498 573 35,000  Level FlightAware ADS-B (EGAA / BFS)
03:26AM 53.2795 -8.4799 121° Southeast 496 571 35,000  Level FlightAware UK
03:26AM 53.2750 -8.4670 121° Southeast 494 568 35,000  Level FlightAware
03:26AM 53.2574 -8.4178 121° Southeast 499 574 35,000  Level FlightAware ADS-B (EGAA / BFS)
03:27AM 53.2124 -8.2885 120° Southeast 498 573 35,000  Level FlightAware ADS-B (EGAA / BFS)
03:27AM 53.1730 -8.1763 120° Southeast 498 573 35,000  Level FlightAware ADS-B (EGAA / BFS)
03:28AM 53.1254 -8.0409 120° Southeast 498 573 35,000  Level FlightAware ADS-B (EGAA / BFS)
03:28AM 53.0891 -7.9388 121° Southeast 498 573 35,000  Level FlightAware ADS-B (EGAA / BFS)
03:29AM 53.0693 -7.8829 120° Southeast 498 573 35,000  Level FlightAware ADS-B (EGAA / BFS)
03:30AM 52.9991 -7.6869 120° Southeast 494 568 35,000  Level FlightAware UK
03:30AM 52.9880 -7.6600 120° Southeast 498 573 35,000  Level FlightAware
03:30AM 52.9757 -7.6240 120° Southeast 498 573 35,000  Level FlightAware ADS-B (EGAA / BFS)
03:31AM 52.9281 -7.4905 120° Southeast 494 568 35,000  Level FlightAware UK
03:31AM 52.9146 -7.4538 120° Southeast 498 573 35,000  Level FlightAware ADS-B (EGAA / BFS)
03:31AM 52.8779 -7.3525 121° Southeast 498 573 35,000  Level FlightAware ADS-B (EGAA / BFS)
03:32AM 52.8421 -7.2550 121° Southeast 498 573 35,000  Level FlightAware ADS-B (EGAA / BFS)
03:32AM 52.7996 -7.1414 122° Southeast 496 571 35,000  Level FlightAware ADS-B (EGAA / BFS)
03:33AM 52.7671 -7.0512 121° Southeast 494 568 35,000  Level FlightAware ADS-B (EGAA / BFS)
03:34AM 52.7160 -6.9135 121° Southeast 492 566 35,000  Level FlightAware ADS-B (EGAA / BFS)
03:34AM 52.6736 -6.7983 121° Southeast 492 566 35,000  Level FlightAware ADS-B (EGAA / BFS)
03:34AM 52.6715 -6.7916 121° Southeast 490 564 35,000  Level FlightAware UK
03:35AM 52.6357 -6.6961 121° Southeast 488 562 35,000  Level FlightAware UK
03:35AM 52.6140 -6.6420 121° Southeast 494 568 35,000  Level FlightAware
03:36AM 52.5670 -6.5170 122° Southeast 497 572 35,000  Level FlightAware
03:36AM 52.5436 -6.4528 121° Southeast 499 574 35,000  Level FlightAware ADS-B (EGAA / BFS)
03:37AM 52.4943 -6.3240 122° Southeast 502 578 35,000  Level FlightAware ADS-B (EGBS)
03:37AM 52.4537 -6.2145 122° Southeast 494 568 35,000  Level FlightAware UK
03:37AM 52.4478 -6.2015 122° Southeast 502 578 35,000  Level FlightAware ADS-B (EGBS)
03:38AM 52.3962 -6.0663 122° Southeast 503 579 35,000  Level FlightAware ADS-B (EGBS)
03:39AM 52.3530 -5.9540 122° Southeast 501 577 35,000  Level FlightAware
03:39AM 52.3322 -5.8997 122° Southeast 502 578 35,000  Level FlightAware ADS-B (EGBS)
03:39AM 52.2955 -5.8070 123° Southeast 501 577 35,000  Level FlightAware ADS-B (EGBS)
03:40AM 52.2372 -5.6445 120° Southeast 505 581 35,000  Level FlightAware ADS-B (EGBS)
03:41AM 52.2103 -5.5264 110° East 511 588 35,000  Level FlightAware ADS-B (EGBS)
03:41AM 52.1936 -5.4021 102° East 515 593 35,000  Level FlightAware ADS-B (EGAA / BFS)
03:42AM 52.1825 -5.3106 102° East 514 592 35,000  Level FlightAware ADS-B (EGGP / LPL)
03:42AM 52.1786 -5.2756 102° East 494 568 35,000  Level FlightAware UK
03:42AM 52.1648 -5.1617 102° East 494 568 35,000  Level FlightAware UK
03:42AM 52.1624 -5.1437 102° East 516 594 35,000  Level FlightAware ADS-B (EGBS)
03:43AM 52.1490 -5.0335 101° East 516 594 35,000  Level FlightAware ADS-B (EGBS)
03:43AM 52.1337 -4.9159 102° East 515 593 35,000  Level FlightAware ADS-B (EGBS)
03:44AM 52.1138 -4.7926 105° East 514 592 35,000  Level FlightAware ADS-B (EGBS)
03:44AM 52.0984 -4.6993 105° East 514 592 35,000  Level FlightAware ADS-B (EGDX / DGX)
03:45AM 52.0786 -4.5761 105° East 515 593 35,000  Level FlightAware ADS-B (EGDX / DGX)
03:45AM 52.0714 -4.5313 105° East 515 593 35,000  Level FlightAware ADS-B (EGDX / DGX)
03:46AM 52.0408 -4.3406 105° East 515 593 35,000  Level FlightAware ADS-B (EGBS)
03:46AM 52.0228 -4.2287 105° East 516 594 35,000  Level FlightAware ADS-B (EGBS)
03:47AM 52.0049 -4.1169 104° East 515 593 35,000  Level FlightAware ADS-B (EGBS)
03:47AM 51.9866 -4.0051 105° East 515 593 35,000  Level FlightAware ADS-B (EGBS)
03:48AM 51.9733 -3.9232 105° East 516 594 35,000  Level FlightAware ADS-B (EGDM)
03:48AM 51.9484 -3.7740 105° East 516 594 35,000  Level FlightAware ADS-B (EGDM)
03:49AM 51.9304 -3.6661 105° East 516 594 35,000  Level FlightAware ADS-B (EGDM)
03:50AM 51.9044 -3.5097 105° East 516 594 35,000  Level FlightAware ADS-B (EGDM)
03:50AM 51.8855 -3.3983 105° East 516 594 35,000  Level FlightAware ADS-B (EGDM)
03:51AM 51.8743 -3.3349 106° East 517 595 35,000  Level FlightAware ADS-B (EGDM)
03:51AM 51.8454 -3.1640 105° East 517 595 35,000  Level FlightAware ADS-B (EGGP / LPL)
03:52AM 51.8290 -3.0714 106° East 516 594 35,000  Level FlightAware ADS-B (EGDM)
03:52AM 51.8040 -2.9267 106° East 517 595 35,000  Level FlightAware ADS-B (EGDM)
03:53AM 51.7847 -2.8155 106° East 518 596 35,000  Level FlightAware ADS-B (EGDX / DGX)
03:53AM 51.7721 -2.7450 106° East 515 593 35,000  Level FlightAware ADS-B (EGDX / DGX)
03:54AM 51.7542 -2.6293 104° East 519 597 35,000  Level FlightAware ADS-B (EGDM)
03:54AM 51.7497 -2.5989 103° East 520 598 35,000  Level FlightAware ADS-B (EGDX / DGX)
03:54AM 51.7371 -2.4926 101° East 520 598 35,000  Level FlightAware ADS-B (EGDX / DGX)
03:55AM 51.7230 -2.3628 100° East 521 600 35,000  Level FlightAware ADS-B (EGDX / DGX)
03:55AM 51.7331 -2.4583 280° West 520 598 35,000  Level FlightAware ADS-B (EGSQ)
03:56AM 51.7020 -2.1606 99° East 521 600 35,000  Level FlightAware ADS-B (EGBS)
03:56AM 51.7025 -2.1644 281° West 521 600 35,000  Level FlightAware ADS-B (EGWU / NHT)
03:56AM 51.6866 -2.0116 99° East 521 600 35,000  Level FlightAware ADS-B (EGDX / DGX)
03:57AM 51.6730 -1.8779 99° East 521 600 35,000  Level FlightAware ADS-B (EGSQ)
03:57AM 51.6579 -1.7364 100° East 522 601 35,000  Level FlightAware ADS-B (EGWU / NHT)
03:58AM 51.6457 -1.6257 100° East 523 602 35,000  Level FlightAware ADS-B (EGWU / NHT)
03:58AM 51.6367 -1.5417 100° East 523 602 35,000  Level FlightAware ADS-B (EGDM)
03:59AM 51.6232 -1.4191 100° East 523 602 35,000  Level FlightAware ADS-B (EGSQ)
03:59AM 51.6100 -1.3009 100° East 523 602 35,000  Level FlightAware ADS-B (EGSQ)
04:00AM 51.5950 -1.1674 100° East 524 603 35,000  Level FlightAware ADS-B (EGDM)
04:00AM 51.5825 -1.0563 100° East 524 603 35,000  Level FlightAware ADS-B (EGWU / NHT)
04:01AM 51.5829 -1.0605 279° West 524 603 35,000  Level FlightAware ADS-B (EGTC)
04:01AM 51.5600 -0.8655 101° East 525 604 35,000  Level FlightAware ADS-B (EGWU / NHT)
04:02AM 51.5438 -0.7223 101° East 496 571 35,000  Level FlightAware UK
04:02AM 51.5414 -0.7051 101° East 525 604 35,000  Level FlightAware ADS-B (EGDM)
04:02AM 51.5278 -0.5905 101° East 525 604 35,000  Level FlightAware ADS-B (EGDM)
04:03AM 51.5143 -0.4757 101° East 525 604 35,000  Level FlightAware ADS-B (EGWU / NHT)
04:04AM 51.4998 -0.3533 101° East 526 605 35,000  Level FlightAware ADS-B (EGWU / NHT)
04:04AM 51.4844 -0.2271 101° East 527 606 35,000  Level FlightAware ADS-B (EGDM)
04:05AM 51.4703 -0.1125 101° East 527 606 35,000  Level FlightAware ADS-B (EGWU / NHT)
04:05AM 51.4565 -0.0014 101° East 527 606 35,000  Level FlightAware ADS-B (EGWU / NHT)
04:06AM 51.4412 0.1209 101° East 527 606 35,000  Level FlightAware ADS-B (EGWU / NHT)
04:06AM 51.4267 0.2354 101° East 526 605 35,000  Level FlightAware ADS-B (EGWU / NHT)
04:06AM 51.4213 0.2775 102° East 528 608 35,000  Level FlightAware ADS-B (EGDM)
04:07AM 51.4056 0.4049 102° East 494 568 35,000  Level FlightAware UK
04:07AM 51.4014 0.4346 102° East 530 610 35,000  Level FlightAware ADS-B (EGSQ)
04:08AM 51.3859 0.5570 101° East 529 609 35,000  Level FlightAware ADS-B (EGWU / NHT)
04:08AM 51.3700 0.6806 101° East 494 568 35,000  Level FlightAware UK
04:08AM 51.3671 0.7024 101° East 528 608 35,000  Level FlightAware ADS-B (EGMD / LYX)
04:08AM 51.3630 0.7330 102° East 529 609 35,000  Level FlightAware ADS-B (EGSQ)
04:09AM 51.3468 0.8554 102° East 529 609 35,000  Level FlightAware ADS-B (EGMD / LYX)
04:09AM 51.3418 0.8939 102° East 530 610 35,000  Level FlightAware ADS-B (EGWU / NHT)
04:10AM 51.3239 1.0279 102° East 532 612 35,000  Level FlightAware ADS-B (EGSQ)
04:10AM 51.3054 1.1539 103° East 533 613 35,000  Level FlightAware ADS-B (EGSQ)
04:11AM 51.2884 1.2603 104° East 533 613 35,000  Level FlightAware ADS-B (EGSQ)
04:11AM 51.2680 1.3862 104° East 533 613 35,000  Level FlightAware ADS-B (EGMD / LYX)
04:12AM 51.2492 1.5042 104° East 534 615 35,000  Level FlightAware ADS-B (EGMD / LYX)
04:12AM 51.2315 1.6149 104° East 536 617 35,000  Level FlightAware ADS-B (EGMD / LYX)
04:13AM 51.2126 1.7332 104° East 536 617 35,000  Level FlightAware ADS-B (EGSQ)
04:13AM 51.1916 1.8633 104° East 537 618 35,000  Level FlightAware ADS-B (EGMD / LYX)
04:14AM 51.1710 1.9930 104° East 536 617 35,000  Level FlightAware
04:14AM 51.1696 2.0008 106° East 537 618 35,000  Level FlightAware ADS-B (EGSQ)
04:14AM 51.1471 2.1387 105° East 538 619 35,000  Level FlightAware ADS-B (EGSQ)
04:15AM 51.1260 2.2690 104° East 539 620 35,000  Level FlightAware
04:16AM 51.1040 2.3950 105° East 539 620 35,000  Level FlightAware
04:16AM 51.0974 2.4373 104° East 541 623 35,000  Level FlightAware ADS-B (EGSQ)
04:16AM 51.0726 2.5886 104° East 494 568 35,000  Level FlightAware UK
04:17AM 51.0600 2.6640 104° East 542 624 35,000  Level FlightAware
04:17AM 51.0370 2.7940 106° East 544 626 35,000  Level FlightAware
04:18AM 51.0120 2.9450 105° East 546 628 35,000  Level FlightAware
04:18AM 50.9910 3.0650 105° East 546 628 35,000  Level FlightAware
04:19AM 50.9692 3.1904 105° East 494 568 35,000  Level FlightAware UK
04:19AM 50.9670 3.2000 105° East 547 629 35,000  Level FlightAware
04:20AM 50.9440 3.3310 106° East 548 631 35,000  Level FlightAware
04:20AM 50.9160 3.4890 106° East 549 632 35,000  Level FlightAware
04:21AM 50.8940 3.6130 106° East 549 632 35,000  Level FlightAware
04:21AM 50.8710 3.7410 106° East 549 632 35,000  Level FlightAware
04:22AM 50.8470 3.8760 106° East 551 634 35,000  Level FlightAware
04:23AM 50.8210 4.0150 106° East 552 635 35,000  Level FlightAware
04:23AM 50.7960 4.1550 106° East 554 638 35,000  Level FlightAware
04:24AM 50.7700 4.2950 106° East 555 639 35,000  Level FlightAware
04:24AM 50.7470 4.4190 106° East 555 639 35,000  Level FlightAware
04:25AM 50.7248 4.5388 106° East 496 571 35,000  Level FlightAware UK
04:25AM 50.7210 4.5550 106° East 556 640 35,000  Level FlightAware
04:25AM 50.6930 4.7020 107° East 558 642 35,000  Level FlightAware
04:26AM 50.6620 4.8400 109° East 558 642 35,000  Level FlightAware
04:27AM 50.6330 4.9620 111° Southeast 558 642 35,000  Level FlightAware
04:27AM 50.6030 5.0950 110° East 557 641 35,000  Level FlightAware
04:28AM 50.5700 5.2400 110° East 557 641 35,000  Level FlightAware
04:28AM 50.5400 5.3700 110° East 557 641 35,000  Level FlightAware
04:29AM 50.5120 5.4910 110° East 557 641 35,000  Level FlightAware
04:30AM 50.4810 5.6280 110° East 558 642 35,000  Level FlightAware
04:30AM 50.4470 5.7720 110° East 557 641 35,000  Level FlightAware
04:31AM 50.4200 5.8860 110° East 557 641 35,000  Level FlightAware
04:31AM 50.3890 6.0220 110° East 557 641 35,000  Level FlightAware
04:32AM 50.3560 6.1590 111° Southeast 558 642 35,000  Level FlightAware
04:32AM 50.3250 6.2910 110° East 559 643 35,000  Level FlightAware
04:33AM 50.2930 6.4230 111° Southeast 559 643 35,000  Level FlightAware
04:34AM 50.2610 6.5560 111° Southeast 560 644 35,000  Level FlightAware
04:34AM 50.2310 6.6800 111° Southeast 560 644 35,000 300 Level FlightAware
04:35AM 50.1960 6.8200 111° Southeast 562 647 35,400 960 Climbing FlightAware
04:35AM 50.1660 6.9410 111° Southeast 561 646 36,100 1,140 Climbing FlightAware
04:36AM 50.1340 7.0720 111° Southeast 558 642 36,800 720 Climbing FlightAware
04:36AM 50.1000 7.2110 111° Southeast 557 641 37,000 180 Climbing FlightAware
04:37AM 50.0690 7.3300 112° Southeast 555 639 37,000  Level FlightAware
04:38AM 50.0350 7.4670 111° Southeast 553 636 37,000  Level FlightAware
04:38AM 50.0060 7.5850 111° Southeast 552 635 37,000  Level FlightAware
04:39AM 49.9650 7.7430 112° Southeast 552 635 37,000  Level FlightAware
04:39AM 49.9370 7.8530 112° Southeast 552 635 37,000  Level FlightAware
04:40AM 49.9010 7.9930 112° Southeast 552 635 37,000  Level FlightAware
04:41AM 49.8660 8.1290 112° Southeast 553 636 37,000  Level FlightAware
04:41AM 49.8350 8.2460 112° Southeast 553 636 37,000  Level FlightAware
04:42AM 49.7970 8.3760 114° Southeast 551 634 37,000  Level FlightAware
04:42AM 49.7650 8.4370 129° Southeast 548 631 37,000  Level FlightAware
04:43AM 49.7170 8.4950 142° Southeast 542 624 37,000  Level FlightAware
04:43AM 49.6470 8.5520 152° Southeast 538 619 37,000  Level FlightAware
04:44AM 49.5670 8.6100 155° Southeast 537 618 37,000  Level FlightAware
04:44AM 49.4830 8.6670 156° South 538 619 37,000  Level FlightAware
04:45AM 49.4020 8.7230 156° South 538 619 37,000  Level FlightAware
04:45AM 49.3320 8.7720 155° Southeast 540 621 37,000  Level FlightAware
04:46AM 49.2470 8.8300 156° South 541 623 37,000  Level FlightAware
04:47AM 49.1700 8.8830 156° South 540 621 37,000  Level FlightAware
04:47AM 49.0890 8.9390 156° South 540 621 37,000  Level FlightAware
04:48AM 49.0060 9.0070 152° Southeast 546 628 37,000  Level FlightAware
04:48AM 48.9370 9.0720 148° Southeast 547 629 37,000  Level FlightAware
04:49AM 48.8620 9.1410 149° Southeast 547 629 37,000  Level FlightAware
04:49AM 48.7880 9.2080 149° Southeast 547 629 37,000  Level FlightAware
04:50AM 48.7140 9.2740 150° Southeast 547 629 37,000  Level FlightAware
04:51AM 48.6380 9.3400 150° Southeast 547 629 37,000  Level FlightAware
04:51AM 48.5530 9.4140 150° Southeast 546 628 37,000  Level FlightAware
04:52AM 48.4750 9.4840 149° Southeast 545 627 37,000  Level FlightAware
04:52AM 48.4060 9.5460 149° Southeast 544 626 37,000  Level FlightAware
04:53AM 48.3270 9.6170 149° Southeast 543 625 37,000  Level FlightAware
04:54AM 48.2480 9.6860 150° Southeast 543 625 37,000  Level FlightAware
04:54AM 48.1740 9.7570 147° Southeast 545 627 37,000  Level FlightAware
04:55AM 48.1130 9.8290 142° Southeast 548 631 37,000  Level FlightAware
04:55AM 48.0420 9.9260 138° Southeast 549 632 37,000  Level FlightAware
04:56AM 47.9760 10.0160 138° Southeast 549 632 37,000  Level FlightAware
04:56AM 47.9150 10.1010 137° Southeast 550 633 37,000  Level FlightAware
04:57AM 47.8480 10.1930 137° Southeast 549 632 37,000  Level FlightAware
04:58AM 47.7810 10.2850 137° Southeast 548 631 37,000  Level FlightAware
04:58AM 47.7270 10.3580 138° Southeast 547 629 37,000  Level FlightAware
04:59AM 47.6520 10.4570 138° Southeast 547 629 37,000  Level FlightAware
04:59AM 47.5820 10.5520 138° Southeast 547 629 37,000  Level FlightAware
05:00AM 47.5080 10.6500 138° Southeast 547 629 37,000  Level FlightAware
05:01AM 47.4460 10.7320 138° Southeast 546 628 37,000  Level FlightAware
05:01AM 47.3740 10.8290 138° Southeast 545 627 37,000  Level FlightAware
05:02AM 47.3070 10.9160 139° Southeast 545 627 37,000  Level FlightAware
05:02AM 47.2470 10.9960 138° Southeast 545 627 37,000  Level FlightAware
05:03AM 47.1790 11.0870 138° Southeast 544 626 37,000  Level FlightAware
05:04AM 47.1060 11.1800 139° Southeast 544 626 37,000  Level FlightAware
05:04AM 47.0430 11.2640 138° Southeast 541 623 37,000  Level FlightAware
05:05AM 46.9790 11.3460 139° Southeast 539 620 37,000  Level FlightAware
05:05AM 46.9120 11.4330 138° Southeast 537 618 37,000  Level FlightAware
05:06AM 46.8540 11.5100 138° Southeast 536 617 37,000  Level FlightAware
05:07AM 46.7690 11.6170 139° Southeast 534 615 37,000  Level FlightAware
05:07AM 46.7090 11.6960 138° Southeast 535 616 37,000  Level FlightAware
05:08AM 46.6450 11.7770 139° Southeast 539 620 37,000  Level FlightAware
05:08AM 46.5740 11.8680 139° Southeast 540 621 37,000  Level FlightAware
05:09AM 46.5140 11.9440 139° Southeast 539 620 37,000  Level FlightAware
05:10AM 46.4480 12.0270 139° Southeast 538 619 37,000  Level FlightAware
05:10AM 46.3710 12.1250 139° Southeast 538 619 37,000  Level FlightAware
05:11AM 46.3330 12.1720 139° Southeast 538 619 37,000  Level FlightAware
05:11AM 46.2350 12.2940 139° Southeast 536 617 37,000  Level FlightAware
05:12AM 46.1670 12.3800 139° Southeast 536 617 37,000  Level FlightAware
05:13AM 46.0960 12.4670 140° Southeast 536 617 37,000  Level FlightAware
05:13AM 46.0310 12.5480 139° Southeast 535 616 37,000  Level FlightAware
05:14AM 45.9670 12.6270 139° Southeast 533 613 37,000  Level FlightAware
05:14AM 45.8930 12.7170 140° Southeast 533 613 37,000  Level FlightAware
05:15AM 45.8200 12.8060 140° Southeast 531 611 37,000  Level FlightAware
05:16AM 45.7650 12.8750 139° Southeast 530 610 37,000  Level FlightAware
05:16AM 45.6880 12.9680 140° Southeast 529 609 37,000  Level FlightAware
05:17AM 45.6280 13.0430 139° Southeast 528 608 37,000  Level FlightAware
05:17AM 45.5620 13.1220 140° Southeast 529 609 37,000  Level FlightAware
05:18AM 45.4990 13.2040 138° Southeast 526 605 37,000  Level FlightAware
05:19AM 45.4420 13.2930 132° Southeast 528 608 37,000  Level FlightAware
05:19AM 45.3890 13.3940 127° Southeast 528 608 37,000  Level FlightAware
05:20AM 45.3420 13.4860 126° Southeast 529 609 37,000  Level FlightAware
05:20AM 45.2920 13.5790 127° Southeast 534 615 37,000  Level FlightAware
05:21AM 45.2200 13.7170 126° Southeast 536 617 37,000  Level FlightAware
05:22AM 45.1760 13.8010 127° Southeast 537 618 37,000  Level FlightAware
05:22AM 45.1160 13.9110 128° Southeast 536 617 37,000  Level FlightAware
05:23AM 45.0630 14.0110 127° Southeast 536 617 37,000  Level FlightAware
05:23AM 45.0210 14.0890 127° Southeast 536 617 37,000  Level FlightAware
05:24AM 44.9550 14.2110 127° Southeast 527 606 37,000  Level FlightAware
05:25AM 44.9050 14.2990 129° Southeast 536 617 37,000  Level FlightAware
05:25AM 44.8520 14.3950 128° Southeast 531 611 37,000  Level FlightAware
05:26AM 44.7910 14.5050 128° Southeast 532 612 37,000  Level FlightAware
05:26AM 44.7320 14.6130 128° Southeast 539 620 37,000  Level FlightAware
05:27AM 44.6740 14.7170 128° Southeast 533 613 37,000  Level FlightAware
05:28AM 44.6050 14.8380 129° Southeast 532 612 37,000  Level FlightAware
05:28AM 44.5440 14.9470 128° Southeast 531 611 37,000  Level FlightAware
05:29AM 44.4910 15.0420 128° Southeast 529 609 37,000  Level FlightAware
05:30AM 44.4370 15.1360 129° Southeast 528 608 37,000  Level FlightAware
05:30AM 44.3840 15.2310 128° Southeast 527 606 37,000  Level FlightAware
05:31AM 44.3300 15.3250 129° Southeast 526 605 37,000  Level FlightAware
05:31AM 44.2760 15.4180 129° Southeast 526 605 37,000  Level FlightAware
05:32AM 44.2220 15.5120 129° Southeast 526 605 37,000  Level FlightAware
05:33AM 44.1680 15.6050 129° Southeast 525 604 37,000  Level FlightAware
05:33AM 44.1120 15.7040 128° Southeast 524 603 37,000  Level FlightAware
05:34AM 44.0510 15.8090 129° Southeast 522 601 37,000  Level FlightAware
05:34AM 43.9980 15.9010 129° Southeast 521 600 37,000  Level FlightAware
05:35AM 43.9370 16.0040 129° Southeast 521 600 37,000  Level FlightAware
05:36AM 43.8910 16.0820 129° Southeast 520 598 37,000  Level FlightAware
05:36AM 43.8300 16.1860 129° Southeast 518 596 37,000  Level FlightAware
05:37AM 43.7830 16.2660 129° Southeast 516 594 37,000  Level FlightAware
05:37AM 43.7300 16.3540 130° Southeast 515 593 37,000  Level FlightAware
05:38AM 43.6770 16.4470 128° Southeast 515 593 37,000  Level FlightAware
05:39AM 43.6160 16.5460 130° Southeast 515 593 37,000  Level FlightAware
05:39AM 43.5700 16.6260 128° Southeast 515 593 37,000  Level FlightAware
05:40AM 43.5160 16.7150 130° Southeast 514 592 37,000  Level FlightAware
05:40AM 43.4650 16.7990 130° Southeast 514 592 37,000  Level FlightAware
05:41AM 43.4010 16.9060 129° Southeast 514 592 37,000  Level FlightAware
05:41AM 43.3560 16.9800 130° Southeast 514 592 37,000  Level FlightAware
05:42AM 43.3020 17.0680 130° Southeast 513 590 37,000  Level FlightAware
05:43AM 43.2490 17.1570 129° Southeast 512 589 37,000  Level FlightAware
05:43AM 43.1960 17.2450 130° Southeast 512 589 37,000  Level FlightAware
05:44AM 43.1410 17.3350 130° Southeast 512 589 37,000  Level FlightAware
05:44AM 43.0850 17.4250 130° Southeast 511 588 37,000  Level FlightAware
05:45AM 43.0340 17.5070 130° Southeast 510 587 37,000  Level FlightAware
05:46AM 42.9820 17.5920 130° Southeast 510 587 37,000  Level FlightAware
05:46AM 42.9230 17.6860 131° Southeast 515 593 37,000  Level FlightAware
05:47AM 42.8630 17.7830 130° Southeast 513 590 37,000  Level FlightAware
05:47AM 42.8210 17.8500 131° Southeast 507 583 37,000  Level FlightAware
05:48AM 42.7660 17.9400 130° Southeast 505 581 37,000  Level FlightAware
05:48AM 42.7060 18.0350 131° Southeast 507 583 37,000  Level FlightAware
05:49AM 42.6390 18.1420 130° Southeast 501 577 37,000  Level FlightAware
05:50AM 42.5840 18.2280 131° Southeast 500 575 37,000  Level FlightAware
05:50AM 42.5320 18.3060 132° Southeast 500 575 37,000  Level FlightAware
05:51AM 42.4760 18.3820 135° Southeast 504 580 37,000  Level FlightAware
05:52AM 42.4050 18.4780 135° Southeast 503 579 37,000  Level FlightAware
05:52AM 42.3550 18.5470 134° Southeast 503 579 37,000  Level FlightAware
05:53AM 42.2900 18.6310 136° Southeast 502 578 37,000  Level FlightAware
05:53AM 42.2320 18.7100 135° Southeast 501 577 37,000  Level FlightAware
05:54AM 42.1840 18.7740 135° Southeast 500 575 37,000  Level FlightAware
05:55AM 42.1190 18.8590 136° Southeast 500 575 37,000  Level FlightAware
05:55AM 42.0600 18.9380 135° Southeast 500 575 37,000  Level FlightAware
05:56AM 42.0050 19.0120 135° Southeast 501 577 37,000  Level FlightAware
05:56AM 41.9590 19.0730 135° Southeast 501 577 37,000  Level FlightAware
05:57AM 41.8880 19.1650 136° Southeast 502 578 37,000  Level FlightAware
05:57AM 41.8280 19.2430 136° Southeast 502 578 37,000  Level FlightAware
05:58AM 41.7670 19.3220 136° Southeast 502 578 37,000  Level FlightAware
05:59AM 41.7070 19.3910 139° Southeast 500 575 37,000  Level FlightAware
05:59AM 41.6530 19.4530 139° Southeast 498 573 37,000  Level FlightAware
06:00AM 41.5840 19.5280 141° Southeast 497 572 37,000  Level FlightAware
06:00AM 41.5260 19.5940 140° Southeast 496 571 37,000  Level FlightAware
06:01AM 41.4580 19.6700 140° Southeast 497 572 37,000  Level FlightAware
06:02AM 41.3980 19.7420 138° Southeast 497 572 37,000  Level FlightAware
06:02AM 41.3500 19.8070 135° Southeast 496 571 37,000  Level FlightAware
06:03AM 41.2880 19.8890 135° Southeast 495 570 37,000  Level FlightAware
06:03AM 41.2300 19.9670 135° Southeast 494 568 37,000  Level FlightAware
06:04AM 41.1820 20.0340 134° Southeast 493 567 37,000  Level FlightAware
06:04AM 41.1280 20.1050 135° Southeast 493 567 37,000  Level FlightAware
06:05AM 41.0620 20.1930 135° Southeast 493 567 37,000  Level FlightAware
06:06AM 41.0070 20.2660 135° Southeast 492 566 37,000  Level FlightAware
06:06AM 40.9580 20.3320 135° Southeast 492 566 37,000  Level FlightAware
06:07AM 40.8970 20.4120 135° Southeast 491 565 37,000  Level FlightAware
06:07AM 40.8390 20.4890 135° Southeast 492 566 37,000  Level FlightAware
06:08AM 40.7830 20.5610 136° Southeast 492 566 37,000  Level FlightAware
06:09AM 40.7320 20.6290 135° Southeast 494 568 37,000  Level FlightAware
06:09AM 40.6720 20.7050 136° Southeast 496 571 37,000  Level FlightAware
06:10AM 40.6110 20.7870 134° Southeast 499 574 37,000  Level FlightAware
06:10AM 40.5580 20.8550 136° Southeast 501 577 37,000  Level FlightAware
06:11AM 40.4930 20.9380 136° Southeast 502 578 37,000  Level FlightAware
06:11AM 40.4610 20.9780 136° Southeast 502 578 37,000  Level FlightAware
06:12AM 40.3720 21.0810 139° Southeast 501 577 37,000  Level FlightAware
06:13AM 40.3130 21.1490 139° Southeast 500 575 37,000  Level FlightAware
06:13AM 40.2550 21.2150 139° Southeast 499 574 37,000  Level FlightAware
06:14AM 40.1970 21.2820 139° Southeast 496 571 37,000  Level FlightAware
06:14AM 40.1300 21.3590 139° Southeast 493 567 37,000  Level FlightAware
06:15AM 40.0690 21.4270 140° Southeast 491 565 37,000  Level FlightAware
06:16AM 40.0140 21.4900 139° Southeast 490 564 37,000  Level FlightAware
06:16AM 39.9520 21.5590 140° Southeast 489 563 37,000  Level FlightAware
06:17AM 39.8910 21.6290 139° Southeast 484 557 37,000  Level FlightAware
06:17AM 39.8290 21.6990 139° Southeast 481 554 37,000  Level FlightAware
06:18AM 39.7750 21.7600 139° Southeast 479 551 37,000  Level FlightAware
06:18AM 39.7160 21.8260 139° Southeast 480 552 37,000  Level FlightAware
06:19AM 39.6510 21.8990 139° Southeast 480 552 37,000  Level FlightAware
06:20AM 39.5970 21.9600 139° Southeast 479 551 37,000  Level FlightAware
06:20AM 39.5380 22.0250 140° Southeast 480 552 37,000  Level FlightAware
06:21AM 39.4790 22.0910 139° Southeast 480 552 37,000  Level FlightAware
06:21AM 39.4190 22.1560 140° Southeast 480 552 37,000  Level FlightAware
06:22AM 39.3760 22.2050 139° Southeast 480 552 37,000  Level FlightAware
06:22AM 39.3100 22.2780 139° Southeast 480 552 37,000  Level FlightAware
06:23AM 39.2500 22.3450 139° Southeast 480 552 37,000  Level FlightAware
06:24AM 39.2010 22.3980 140° Southeast 478 550 37,000  Level FlightAware
06:24AM 39.1390 22.4670 139° Southeast 478 550 37,000  Level FlightAware
06:25AM 39.0800 22.5300 140° Southeast 478 550 37,000  Level FlightAware
06:25AM 39.0250 22.5900 140° Southeast 478 550 37,000  Level FlightAware
06:26AM 38.9590 22.6620 140° Southeast 477 549 37,000  Level FlightAware
06:27AM 38.8970 22.7300 140° Southeast 478 550 37,000  Level FlightAware
06:27AM 38.8350 22.7980 139° Southeast 479 551 37,000  Level FlightAware
06:28AM 38.7790 22.8580 140° Southeast 480 552 37,000  Level FlightAware
06:28AM 38.7200 22.9210 140° Southeast 481 554 37,000  Level FlightAware
06:29AM 38.6570 22.9890 140° Southeast 481 554 37,000  Level FlightAware
06:29AM 38.6010 23.0490 140° Southeast 481 554 37,000  Level FlightAware
06:30AM 38.5420 23.1140 139° Southeast 482 555 37,000  Level FlightAware
06:31AM 38.4800 23.1790 141° Southeast 481 554 37,000  Level FlightAware
06:31AM 38.4170 23.2470 140° Southeast 481 554 37,000  Level FlightAware
06:32AM 38.3580 23.3090 141° Southeast 481 554 37,000  Level FlightAware
06:32AM 38.3070 23.3640 140° Southeast 482 555 37,000  Level FlightAware
06:33AM 38.2430 23.4310 141° Southeast 483 556 37,000  Level FlightAware
06:34AM 38.1790 23.4980 141° Southeast 485 558 37,000  Level FlightAware
06:34AM 38.1190 23.5620 140° Southeast 486 559 37,000  Level FlightAware
06:35AM 38.0610 23.6240 140° Southeast 487 560 37,000  Level FlightAware
06:35AM 37.9990 23.6880 141° Southeast 487 560 37,000  Level FlightAware
06:36AM 37.9340 23.7580 140° Southeast 489 563 37,000  Level FlightAware
06:36AM 37.8810 23.8180 138° Southeast 494 568 37,000  Level FlightAware
06:37AM 37.8250 23.8990 131° Southeast 499 574 37,000  Level FlightAware
06:38AM 37.7700 23.9820 130° Southeast 500 575 37,000  Level FlightAware
06:38AM 37.7170 24.0620 130° Southeast 501 577 37,000  Level FlightAware
06:39AM 37.6710 24.1290 131° Southeast 502 578 37,000  Level FlightAware
06:39AM 37.6180 24.2080 130° Southeast 503 579 37,000  Level FlightAware
06:40AM 37.5600 24.2990 129° Southeast 506 582 37,000  Level FlightAware
06:41AM 37.5180 24.3750 125° Southeast 511 588 37,000  Level FlightAware
06:41AM 37.4740 24.4640 122° Southeast 512 589 37,000  Level FlightAware
06:42AM 37.4300 24.5520 122° Southeast 512 589 37,000  Level FlightAware
06:42AM 37.3850 24.6420 122° Southeast 513 590 37,000  Level FlightAware
06:43AM 37.3430 24.7260 122° Southeast 514 592 37,000  Level FlightAware
06:43AM 37.2930 24.8240 123° Southeast 514 592 37,000  Level FlightAware
06:44AM 37.2510 24.9070 122° Southeast 515 593 37,000  Level FlightAware
06:45AM 37.2040 25.0000 122° Southeast 515 593 37,000  Level FlightAware
06:45AM 37.1590 25.0880 123° Southeast 515 593 37,000  Level FlightAware
06:46AM 37.1160 25.1710 123° Southeast 514 592 37,000  Level FlightAware
06:46AM 37.0720 25.2560 123° Southeast 515 593 37,000  Level FlightAware
06:47AM 37.0280 25.3440 122° Southeast 516 594 37,000  Level FlightAware
06:48AM 36.9810 25.4350 123° Southeast 516 594 37,000  Level FlightAware
06:48AM 36.9350 25.5230 123° Southeast 516 594 37,000  Level FlightAware
06:49AM 36.8910 25.6080 123° Southeast 516 594 37,000  Level FlightAware
06:49AM 36.8420 25.7050 122° Southeast 516 594 37,000  Level FlightAware
06:50AM 36.7980 25.7880 123° Southeast 517 595 37,000  Level FlightAware
06:50AM 36.7500 25.8800 123° Southeast 518 596 37,000  Level FlightAware
06:51AM 36.7090 25.9580 123° Southeast 518 596 37,000  Level FlightAware
06:52AM 36.6690 26.0350 123° Southeast 518 596 37,000  Level FlightAware
06:52AM 36.6150 26.1380 123° Southeast 519 597 37,000  Level FlightAware
06:53AM 36.5700 26.2270 122° Southeast 521 600 37,000  Level FlightAware
06:53AM 36.5240 26.3330 118° Southeast 525 604 37,000  Level FlightAware
06:54AM 36.4840 26.4330 116° Southeast 525 604 37,000  Level FlightAware
06:55AM 36.4440 26.5300 117° Southeast 525 604 37,000  Level FlightAware
06:55AM 36.4070 26.6270 115° Southeast 525 604 37,000  Level FlightAware
06:56AM 36.3710 26.7130 117° Southeast 525 604 37,000  Level FlightAware
06:56AM 36.3320 26.8130 116° Southeast 525 604 37,000  Level FlightAware
06:57AM 36.2930 26.9070 117° Southeast 526 605 37,000  Level FlightAware
06:58AM 36.2540 27.0010 117° Southeast 526 605 37,000  Level FlightAware
06:58AM 36.2060 27.1190 117° Southeast 527 606 37,000  Level FlightAware
06:59AM 36.1680 27.2110 117° Southeast 529 609 37,000  Level FlightAware
06:59AM 36.1320 27.2970 117° Southeast 530 610 37,000  Level FlightAware
07:00AM 36.0910 27.3970 117° Southeast 532 612 37,000  Level FlightAware
07:01AM 36.0510 27.4950 117° Southeast 534 615 37,000  Level FlightAware
07:01AM 36.0090 27.5950 117° Southeast 536 617 37,000  Level FlightAware
07:02AM 35.9720 27.6820 118° Southeast 535 616 37,000  Level FlightAware
07:02AM 35.9230 27.7730 124° Southeast 530 610 37,000  Level FlightAware
07:03AM 35.8710 27.8620 126° Southeast 530 610 37,000  Level FlightAware
07:04AM 35.8200 27.9480 126° Southeast 530 610 37,000  Level FlightAware
07:04AM 35.7740 28.0260 126° Southeast 530 610 37,000  Level FlightAware
07:05AM 35.7220 28.1160 125° Southeast 530 610 37,000  Level FlightAware
07:05AM 35.6710 28.2020 126° Southeast 532 612 37,000  Level FlightAware
07:06AM 35.6140 28.3000 126° Southeast 532 612 37,000  Level FlightAware
07:07AM 35.5600 28.3910 126° Southeast 533 613 37,000  Level FlightAware
07:07AM 35.5080 28.4760 127° Southeast 533 613 37,000  Level FlightAware
07:08AM 35.4620 28.5550 126° Southeast 534 615 37,000  Level FlightAware
07:08AM 35.4090 28.6450 126° Southeast 534 615 37,000  Level FlightAware
07:09AM 35.3560 28.7330 126° Southeast 537 618 37,000  Level FlightAware
07:10AM 35.3020 28.8220 127° Southeast 538 619 37,000  Level FlightAware
07:10AM 35.2570 28.8980 126° Southeast 539 620 37,000  Level FlightAware
07:11AM 35.2080 28.9790 127° Southeast 541 623 37,000  Level FlightAware
07:11AM 35.1500 29.0750 126° Southeast 542 624 37,000  Level FlightAware
07:12AM 35.1000 29.1570 127° Southeast 542 624 37,000  Level FlightAware
07:12AM 35.0500 29.2410 126° Southeast 542 624 37,000  Level FlightAware
07:13AM 34.9880 29.3440 126° Southeast 544 626 37,000  Level FlightAware
07:14AM 34.9370 29.4280 127° Southeast 544 626 37,000  Level FlightAware
07:14AM 34.8850 29.5110 127° Southeast 544 626 37,000  Level FlightAware
07:15AM 34.8330 29.5970 126° Southeast 546 628 37,000  Level FlightAware
07:15AM 34.7780 29.6860 127° Southeast 541 623 37,000  Level FlightAware
07:16AM 34.7260 29.7690 127° Southeast 542 624 37,000  Level FlightAware
07:17AM 34.6690 29.8600 127° Southeast 542 624 37,000  Level FlightAware
07:17AM 34.6150 29.9510 126° Southeast 543 625 37,000  Level FlightAware
07:18AM 34.5700 30.0270 126° Southeast 543 625 37,000  Level FlightAware
07:18AM 34.5170 30.1460 118° Southeast 556 640 37,000  Level FlightAware
07:19AM 34.4670 30.2520 120° Southeast 557 641 37,000  Level FlightAware
07:20AM 34.4220 30.3490 119° Southeast 559 643 37,000  Level FlightAware
07:20AM 34.3690 30.4580 120° Southeast 557 641 37,000  Level FlightAware
07:21AM 34.3220 30.5550 120° Southeast 558 642 37,000  Level FlightAware
07:22AM 34.2780 30.6470 120° Southeast 558 642 37,000  Level FlightAware
07:22AM 34.2310 30.7420 121° Southeast 559 643 37,000  Level FlightAware
07:23AM 34.1820 30.8400 121° Southeast 565 650 37,000  Level FlightAware
07:23AM 34.1350 30.9380 120° Southeast 567 652 37,000  Level FlightAware
07:24AM 34.0890 31.0300 121° Southeast 568 654 37,000  Level FlightAware
07:25AM 34.0400 31.1310 120° Southeast 569 655 37,000  Level FlightAware
07:25AM 33.9890 31.2350 121° Southeast 570 656 37,000  Level FlightAware
07:26AM 33.9400 31.3330 121° Southeast 569 655 37,000  Level FlightAware
07:26AM 33.8940 31.4260 121° Southeast 569 655 37,000  Level FlightAware
07:27AM 33.8470 31.5210 121° Southeast 570 656 37,000  Level FlightAware
07:27AM 33.8000 31.6160 121° Southeast 569 655 37,000  Level FlightAware
07:28AM 33.7510 31.7140 121° Southeast 569 655 37,000  Level FlightAware
07:29AM 33.7050 31.8060 121° Southeast 569 655 37,000  Level FlightAware
07:29AM 33.6560 31.9030 121° Southeast 567 652 37,000  Level FlightAware
07:30AM 33.6090 31.9950 122° Southeast 567 652 37,000  Level FlightAware
07:30AM 33.5630 32.0890 120° Southeast 566 651 37,000  Level FlightAware
07:31AM 33.5120 32.1880 122° Southeast 565 650 37,000  Level FlightAware
07:32AM 33.4560 32.2980 121° Southeast 566 651 37,000  Level FlightAware
07:32AM 33.4010 32.4070 121° Southeast 565 650 37,000  Level FlightAware
07:33AM 33.3490 32.5060 122° Southeast 565 650 37,000 -360 Level FlightAware
07:34AM 33.3020 32.5990 121° Southeast 564 649 36,600 -1,260 Descending FlightAware
07:34AM 33.2410 32.7190 121° Southeast 568 654 35,400 -2,400 Descending FlightAware
07:35AM 33.1910 32.8150 122° Southeast 569 655 33,400 -3,480 Descending FlightAware
07:36AM 33.1340 32.9270 121° Southeast 562 647 31,000 -3,180 Descending FlightAware
07:36AM 33.0930 33.0050 122° Southeast 550 633 29,700 -2,220 Descending FlightAware
07:37AM 33.0290 33.1280 122° Southeast 511 588 28,100 -1,620 Descending FlightAware
07:38AM 32.9770 33.2300 121° Southeast 501 577 27,200 -2,580 Descending FlightAware
07:38AM 32.9260 33.3250 123° Southeast 479 551 24,500 -3,420 Descending FlightAware
07:39AM 32.8910 33.3930 121° Southeast 470 541 23,400 -1,320 Descending FlightAware
07:39AM 32.8460 33.4770 123° Southeast 472 543 23,000 -960 Descending FlightAware
07:40AM 32.8020 33.5640 121° Southeast 469 540 22,200 -1,620 Descending FlightAware
07:41AM 32.7650 33.6320 123° Southeast 449 517 21,100 -1,620 Descending FlightAware
07:41AM 32.7290 33.7090 119° Southeast 419 482 20,400 -1,380 Descending FlightAware
07:42AM 32.7150 33.7780 104° East 398 458 19,600 -1,560 Descending FlightAware
07:42AM 32.7000 33.8580 103° East 379 436 18,600 -1,320 Descending FlightAware
07:43AM 32.6870 33.9270 103° East 351 404 18,000 -1,320 Descending FlightAware
07:44AM 32.6770 33.9810 102° East 341 392 17,200 -1,500 Descending FlightAware
07:44AM 32.6710 33.9960 115° Southeast 336 387 17,000 -1,440 Descending FlightAware
07:44AM 32.6570 34.0220 123° Southeast 330 380 16,600 -1,560 Descending FlightAware
07:45AM 32.6180 34.0650 137° Southeast 324 373 15,700 -1,620 Descending FlightAware
07:45AM 32.5800 34.1040 139° Southeast 321 369 14,800 -1,620 Descending FlightAware
07:46AM 32.5390 34.1450 140° Southeast 318 366 13,900 -1,440 Descending FlightAware
07:46AM 32.5020 34.1820 140° Southeast 314 361 13,100 -1,500 Descending FlightAware
07:47AM 32.4630 34.2230 138° Southeast 309 356 12,200 -1,560 Descending FlightAware
07:47AM 32.4240 34.2620 140° Southeast 304 350 11,300 -1,620 Descending FlightAware
07:48AM 32.3880 34.2990 139° Southeast 303 349 10,400 -1,500 Descending FlightAware
07:48AM 32.3630 34.3240 140° Southeast 297 342 9,900 -720 Descending FlightAware
07:49AM 32.3460 34.3420 138° Southeast 282 325 9,900  Level FlightAware
07:49AM 32.3220 34.3660 140° Southeast 282 325 9,900  Level FlightAware
07:50AM 32.3020 34.3860 140° Southeast 282 325 9,900  Level FlightAware
07:50AM 32.2820 34.4070 138° Southeast 282 325 9,900  Level FlightAware
07:50AM 32.2620 34.4280 138° Southeast 282 325 9,900 -1,320 Level FlightAware
07:53AM 32.0793 34.7101 115° Southeast  Level FlightAware Approximate
07:53AM 32.1220 34.6630 125° Southeast 4,900  Level FlightAware
07:54AM 32.0080 34.8534 125° Southeast  Level FlightAware Approximate
07:54AM 32.1100 34.6850 123° Southeast 257 296 4,900  Level FlightAware
07:54AM 32.1010 34.7010 124° Southeast 247 284 5,000 60 Climbing FlightAware
07:55AM 32.0820 34.7360 123° Southeast 214 246 5,000  Level FlightAware
07:55AM 32.0690 34.7610 122° Southeast 212 244 5,000  Level FlightAware
07:55AM 32.0600 34.7750 127° Southeast 213 245 5,000 -300 Level FlightAware
07:56AM 32.0410 34.7970 136° Southeast 210 242 4,800 -600 Descending FlightAware
07:56AM 32.0280 34.8130 134° Southeast 211 243 4,600 -420 Descending FlightAware
07:57AM 32.0100 34.8330 137° Southeast 212 244 4,500 -780 Descending FlightAware
07:57AM 31.9890 34.8560 137° Southeast 216 249 3,900 -1,560 Descending FlightAware
07:57AM 31.9740 34.8770 130° Southeast 213 245 3,300 -1,620 Descending FlightAware
07:57AM 31.9730 34.8810 106° East 212 244 3,100 -1,080 Descending FlightAware
07:58AM 31.9760 34.9090 83° East 201 231 2,800 -660 Descending FlightAware
07:58AM 31.9840 34.9440 75° East 195 224 2,500 -540 Descending FlightAware
08:01AM 32.0095 34.8769 294° West  Level Estimated